sensor_id;sensor_type;location;lat;lon;timestamp;temperature;humidity
22779;DHT22;11556;51.194;3.800;2023-08-30T00:00:40;14.80;99.90
22779;DHT22;11556;51.194;3.800;2023-08-30T00:03:06;14.80;99.90
22779;DHT22;11556;51.194;3.800;2023-08-30T00:05:32;14.70;99.90
22779;DHT22;11556;51.194;3.800;2023-08-30T00:07:58;14.70;99.90
22779;DHT22;11556;51.194;3.800;2023-08-30T00:10:24;14.70;99.90
22779;DHT22;11556;51.194;3.800;2023-08-30T00:12:49;14.70;99.90
22779;DHT22;11556;51.194;3.800;2023-08-30T00:15:15;14.70;99.90
22779;DHT22;11556;51.194;3.800;2023-08-30T00:17:41;14.70;99.90
22779;DHT22;11556;51.194;3.800;2023-08-30T00:20:07;14.80;99.90
22779;DHT22;11556;51.194;3.800;2023-08-30T00:22:34;14.70;99.90
22779;DHT22;11556;51.194;3.800;2023-08-30T00:25:00;14.70;99.90
22779;DHT22;11556;51.194;3.800;2023-08-30T00:27:25;14.70;99.90
22779;DHT22;11556;51.194;3.800;2023-08-30T00:29:51;14.70;99.90
22779;DHT22;11556;51.194;3.800;2023-08-30T00:32:16;14.70;99.90
22779;DHT22;11556;51.194;3.800;2023-08-30T00:34:42;14.70;99.90
22779;DHT22;11556;51.194;3.800;2023-08-30T00:37:08;14.60;99.90
22779;DHT22;11556;51.194;3.800;2023-08-30T00:39:37;14.70;99.90
22779;DHT22;11556;51.194;3.800;2023-08-30T00:42:03;14.60;99.90
22779;DHT22;11556;51.194;3.800;2023-08-30T00:44:31;14.60;99.90
22779;DHT22;11556;51.194;3.800;2023-08-30T00:46:57;14.70;99.90
22779;DHT22;11556;51.194;3.800;2023-08-30T00:49:24;14.60;99.90
22779;DHT22;11556;51.194;3.800;2023-08-30T00:51:50;14.60;99.90
22779;DHT22;11556;51.194;3.800;2023-08-30T00:54:16;14.60;99.90
22779;DHT22;11556;51.194;3.800;2023-08-30T00:56:42;14.60;99.90
22779;DHT22;11556;51.194;3.800;2023-08-30T00:59:08;14.60;99.90
22779;DHT22;11556;51.194;3.800;2023-08-30T01:01:33;14.50;99.90
22779;DHT22;11556;51.194;3.800;2023-08-30T01:03:59;14.60;99.90
22779;DHT22;11556;51.194;3.800;2023-08-30T01:06:26;14.50;99.90
22779;DHT22;11556;51.194;3.800;2023-08-30T01:08:52;14.40;99.90
22779;DHT22;11556;51.194;3.800;2023-08-30T01:11:36;14.40;99.90
22779;DHT22;11556;51.194;3.800;2023-08-30T01:14:08;14.50;99.90
22779;DHT22;11556;51.194;3.800;2023-08-30T01:16:37;14.50;99.90
22779;DHT22;11556;51.194;3.800;2023-08-30T01:25:00;14.20;99.90
22779;DHT22;11556;51.194;3.800;2023-08-30T01:27:33;14.20;99.90
22779;DHT22;11556;51.194;3.800;2023-08-30T01:30:02;14.20;99.90
22779;DHT22;11556;51.194;3.800;2023-08-30T01:32:29;14.30;99.90
22779;DHT22;11556;51.194;3.800;2023-08-30T01:34:56;14.20;99.90
22779;DHT22;11556;51.194;3.800;2023-08-30T01:37:23;14.30;99.90
22779;DHT22;11556;51.194;3.800;2023-08-30T01:39:50;14.20;99.90
22779;DHT22;11556;51.194;3.800;2023-08-30T01:42:17;14.30;99.90
22779;DHT22;11556;51.194;3.800;2023-08-30T01:44:49;14.40;99.90
22779;DHT22;11556;51.194;3.800;2023-08-30T01:47:15;14.40;99.90
22779;DHT22;11556;51.194;3.800;2023-08-30T01:49:42;14.40;99.90
22779;DHT22;11556;51.194;3.800;2023-08-30T01:52:10;14.60;99.90
22779;DHT22;11556;51.194;3.800;2023-08-30T01:54:37;14.70;99.90
22779;DHT22;11556;51.194;3.800;2023-08-30T01:57:05;14.80;99.90
22779;DHT22;11556;51.194;3.800;2023-08-30T01:59:31;14.90;99.90
22779;DHT22;11556;51.194;3.800;2023-08-30T02:01:56;15.00;99.90
22779;DHT22;11556;51.194;3.800;2023-08-30T02:04:22;15.00;99.90
22779;DHT22;11556;51.194;3.800;2023-08-30T02:07:04;15.20;99.90
22779;DHT22;11556;51.194;3.800;2023-08-30T02:12:00;15.30;99.90
22779;DHT22;11556;51.194;3.800;2023-08-30T02:14:28;15.30;99.90
22779;DHT22;11556;51.194;3.800;2023-08-30T02:16:55;15.30;99.90
22779;DHT22;11556;51.194;3.800;2023-08-30T02:19:21;15.50;99.90
22779;DHT22;11556;51.194;3.800;2023-08-30T02:21:47;15.50;99.90
22779;DHT22;11556;51.194;3.800;2023-08-30T02:24:13;15.50;99.90
22779;DHT22;11556;51.194;3.800;2023-08-30T02:26:39;15.50;99.90
22779;DHT22;11556;51.194;3.800;2023-08-30T02:29:05;15.50;99.90
22779;DHT22;11556;51.194;3.800;2023-08-30T02:31:31;15.50;99.90
22779;DHT22;11556;51.194;3.800;2023-08-30T02:33:56;15.40;99.90
22779;DHT22;11556;51.194;3.800;2023-08-30T02:36:22;15.50;99.90
22779;DHT22;11556;51.194;3.800;2023-08-30T02:38:48;15.50;99.90
22779;DHT22;11556;51.194;3.800;2023-08-30T02:41:14;15.50;99.90
22779;DHT22;11556;51.194;3.800;2023-08-30T02:43:39;15.30;99.90
22779;DHT22;11556;51.194;3.800;2023-08-30T02:46:05;15.30;99.90
22779;DHT22;11556;51.194;3.800;2023-08-30T02:48:31;15.40;99.90
22779;DHT22;11556;51.194;3.800;2023-08-30T02:50:57;15.40;99.90
22779;DHT22;11556;51.194;3.800;2023-08-30T02:53:23;15.40;99.90
22779;DHT22;11556;51.194;3.800;2023-08-30T02:55:49;15.40;99.90
22779;DHT22;11556;51.194;3.800;2023-08-30T02:58:15;15.30;99.90
22779;DHT22;11556;51.194;3.800;2023-08-30T03:00:40;15.20;99.90
22779;DHT22;11556;51.194;3.800;2023-08-30T03:03:06;15.10;99.90
22779;DHT22;11556;51.194;3.800;2023-08-30T03:05:32;15.10;99.90
22779;DHT22;11556;51.194;3.800;2023-08-30T03:07:58;15.10;99.90
22779;DHT22;11556;51.194;3.800;2023-08-30T03:10:23;15.00;99.90
22779;DHT22;11556;51.194;3.800;2023-08-30T03:12:49;14.90;99.90
22779;DHT22;11556;51.194;3.800;2023-08-30T03:15:15;14.80;99.90
22779;DHT22;11556;51.194;3.800;2023-08-30T03:17:40;14.90;99.90
22779;DHT22;11556;51.194;3.800;2023-08-30T03:20:07;14.90;99.90
22779;DHT22;11556;51.194;3.800;2023-08-30T03:22:32;14.80;99.90
22779;DHT22;11556;51.194;3.800;2023-08-30T03:24:58;14.90;99.90
22779;DHT22;11556;51.194;3.800;2023-08-30T03:27:24;14.90;99.90
22779;DHT22;11556;51.194;3.800;2023-08-30T03:29:50;14.90;99.90
22779;DHT22;11556;51.194;3.800;2023-08-30T03:32:17;14.90;99.90
22779;DHT22;11556;51.194;3.800;2023-08-30T03:34:46;15.00;99.90
22779;DHT22;11556;51.194;3.800;2023-08-30T03:37:15;15.00;99.90
22779;DHT22;11556;51.194;3.800;2023-08-30T03:39:41;15.00;99.90
22779;DHT22;11556;51.194;3.800;2023-08-30T03:42:07;15.00;99.90
22779;DHT22;11556;51.194;3.800;2023-08-30T03:44:33;15.10;99.90
22779;DHT22;11556;51.194;3.800;2023-08-30T03:46:59;15.20;99.90
22779;DHT22;11556;51.194;3.800;2023-08-30T03:49:25;15.10;99.90
22779;DHT22;11556;51.194;3.800;2023-08-30T03:51:51;15.10;99.90
22779;DHT22;11556;51.194;3.800;2023-08-30T03:54:16;15.20;99.90
22779;DHT22;11556;51.194;3.800;2023-08-30T03:56:43;15.10;99.90
22779;DHT22;11556;51.194;3.800;2023-08-30T03:59:09;15.10;99.90
22779;DHT22;11556;51.194;3.800;2023-08-30T04:01:35;14.90;99.90
22779;DHT22;11556;51.194;3.800;2023-08-30T04:04:00;14.80;99.90
22779;DHT22;11556;51.194;3.800;2023-08-30T04:06:26;14.80;99.90
22779;DHT22;11556;51.194;3.800;2023-08-30T04:08:52;14.70;99.90
22779;DHT22;11556;51.194;3.800;2023-08-30T04:11:17;14.70;99.90
22779;DHT22;11556;51.194;3.800;2023-08-30T04:13:43;14.80;99.90
22779;DHT22;11556;51.194;3.800;2023-08-30T04:16:08;14.80;99.90
22779;DHT22;11556;51.194;3.800;2023-08-30T04:18:34;14.70;99.90
22779;DHT22;11556;51.194;3.800;2023-08-30T04:21:00;14.70;99.90
22779;DHT22;11556;51.194;3.800;2023-08-30T04:23:28;14.70;99.90
22779;DHT22;11556;51.194;3.800;2023-08-30T04:25:54;14.50;99.90
22779;DHT22;11556;51.194;3.800;2023-08-30T04:28:20;14.50;99.90
22779;DHT22;11556;51.194;3.800;2023-08-30T04:30:46;14.60;99.90
22779;DHT22;11556;51.194;3.800;2023-08-30T04:33:11;14.60;99.90
22779;DHT22;11556;51.194;3.800;2023-08-30T04:35:37;14.50;99.90
22779;DHT22;11556;51.194;3.800;2023-08-30T04:38:03;14.50;99.90
22779;DHT22;11556;51.194;3.800;2023-08-30T04:40:29;14.40;99.90
22779;DHT22;11556;51.194;3.800;2023-08-30T04:42:56;14.50;99.90
22779;DHT22;11556;51.194;3.800;2023-08-30T04:45:22;14.50;99.90
22779;DHT22;11556;51.194;3.800;2023-08-30T04:47:47;14.50;99.90
22779;DHT22;11556;51.194;3.800;2023-08-30T04:50:14;14.50;99.90
22779;DHT22;11556;51.194;3.800;2023-08-30T04:52:40;14.60;99.90
22779;DHT22;11556;51.194;3.800;2023-08-30T04:55:06;14.50;99.90
22779;DHT22;11556;51.194;3.800;2023-08-30T04:57:32;14.50;99.90
22779;DHT22;11556;51.194;3.800;2023-08-30T04:59:57;14.60;99.90
22779;DHT22;11556;51.194;3.800;2023-08-30T05:02:23;14.50;99.90
22779;DHT22;11556;51.194;3.800;2023-08-30T05:04:49;14.60;99.90
22779;DHT22;11556;51.194;3.800;2023-08-30T05:07:14;14.50;99.90
22779;DHT22;11556;51.194;3.800;2023-08-30T05:09:40;14.50;99.90
22779;DHT22;11556;51.194;3.800;2023-08-30T05:12:06;14.60;99.90
22779;DHT22;11556;51.194;3.800;2023-08-30T05:14:32;14.60;99.90
22779;DHT22;11556;51.194;3.800;2023-08-30T05:16:58;14.60;99.90
22779;DHT22;11556;51.194;3.800;2023-08-30T05:19:23;14.60;99.90
22779;DHT22;11556;51.194;3.800;2023-08-30T05:21:49;14.60;99.90
22779;DHT22;11556;51.194;3.800;2023-08-30T05:24:18;14.60;99.90
22779;DHT22;11556;51.194;3.800;2023-08-30T05:26:44;14.60;99.90
22779;DHT22;11556;51.194;3.800;2023-08-30T05:29:12;14.70;99.90
22779;DHT22;11556;51.194;3.800;2023-08-30T05:31:38;14.60;99.90
22779;DHT22;11556;51.194;3.800;2023-08-30T05:34:04;14.70;99.90
22779;DHT22;11556;51.194;3.800;2023-08-30T05:36:30;14.70;99.90
22779;DHT22;11556;51.194;3.800;2023-08-30T05:38:55;14.60;99.90
22779;DHT22;11556;51.194;3.800;2023-08-30T05:41:21;14.60;99.90
22779;DHT22;11556;51.194;3.800;2023-08-30T05:43:46;14.60;99.90
22779;DHT22;11556;51.194;3.800;2023-08-30T05:46:12;14.70;99.90
22779;DHT22;11556;51.194;3.800;2023-08-30T05:48:40;14.70;99.90
22779;DHT22;11556;51.194;3.800;2023-08-30T05:51:06;14.70;99.90
22779;DHT22;11556;51.194;3.800;2023-08-30T05:53:31;14.80;99.90
22779;DHT22;11556;51.194;3.800;2023-08-30T05:55:57;14.80;99.90
22779;DHT22;11556;51.194;3.800;2023-08-30T05:58:23;14.80;99.90
22779;DHT22;11556;51.194;3.800;2023-08-30T06:00:48;14.80;99.90
22779;DHT22;11556;51.194;3.800;2023-08-30T06:03:14;14.90;99.90
22779;DHT22;11556;51.194;3.800;2023-08-30T06:05:40;14.90;99.90
22779;DHT22;11556;51.194;3.800;2023-08-30T06:08:05;14.90;99.90
22779;DHT22;11556;51.194;3.800;2023-08-30T06:10:33;14.90;99.90
22779;DHT22;11556;51.194;3.800;2023-08-30T06:12:59;14.90;99.90
22779;DHT22;11556;51.194;3.800;2023-08-30T06:15:24;15.00;99.90
22779;DHT22;11556;51.194;3.800;2023-08-30T06:17:50;15.00;99.90
22779;DHT22;11556;51.194;3.800;2023-08-30T06:20:16;15.00;99.90
22779;DHT22;11556;51.194;3.800;2023-08-30T06:22:42;15.20;99.90
22779;DHT22;11556;51.194;3.800;2023-08-30T06:25:08;15.20;99.90
22779;DHT22;11556;51.194;3.800;2023-08-30T06:27:41;15.20;99.90
22779;DHT22;11556;51.194;3.800;2023-08-30T06:30:08;15.10;99.90
22779;DHT22;11556;51.194;3.800;2023-08-30T06:32:33;15.20;99.90
22779;DHT22;11556;51.194;3.800;2023-08-30T06:34:59;15.10;99.90
22779;DHT22;11556;51.194;3.800;2023-08-30T06:37:25;15.20;99.90
22779;DHT22;11556;51.194;3.800;2023-08-30T06:39:51;15.20;99.90
22779;DHT22;11556;51.194;3.800;2023-08-30T06:42:16;15.30;99.90
22779;DHT22;11556;51.194;3.800;2023-08-30T06:44:42;15.30;99.90
22779;DHT22;11556;51.194;3.800;2023-08-30T06:47:08;15.40;99.90
22779;DHT22;11556;51.194;3.800;2023-08-30T06:49:34;15.30;99.90
22779;DHT22;11556;51.194;3.800;2023-08-30T06:51:59;15.30;99.90
22779;DHT22;11556;51.194;3.800;2023-08-30T06:54:29;15.40;99.90
22779;DHT22;11556;51.194;3.800;2023-08-30T06:56:59;15.60;99.90
22779;DHT22;11556;51.194;3.800;2023-08-30T06:59:26;15.60;99.90
22779;DHT22;11556;51.194;3.800;2023-08-30T07:01:51;15.80;99.90
22779;DHT22;11556;51.194;3.800;2023-08-30T07:04:17;15.70;99.90
22779;DHT22;11556;51.194;3.800;2023-08-30T07:06:43;15.70;99.90
22779;DHT22;11556;51.194;3.800;2023-08-30T07:09:09;15.80;99.90
22779;DHT22;11556;51.194;3.800;2023-08-30T07:11:34;15.80;99.90
22779;DHT22;11556;51.194;3.800;2023-08-30T07:14:00;15.80;99.90
22779;DHT22;11556;51.194;3.800;2023-08-30T07:16:26;15.70;99.90
22779;DHT22;11556;51.194;3.800;2023-08-30T07:18:51;15.80;99.90
22779;DHT22;11556;51.194;3.800;2023-08-30T07:21:17;16.00;99.90
22779;DHT22;11556;51.194;3.800;2023-08-30T07:23:43;16.10;99.90
22779;DHT22;11556;51.194;3.800;2023-08-30T07:26:09;16.20;99.90
22779;DHT22;11556;51.194;3.800;2023-08-30T07:28:35;16.30;99.90
22779;DHT22;11556;51.194;3.800;2023-08-30T07:31:04;16.70;99.90
22779;DHT22;11556;51.194;3.800;2023-08-30T07:33:30;17.10;99.90
22779;DHT22;11556;51.194;3.800;2023-08-30T07:35:56;17.40;99.90
22779;DHT22;11556;51.194;3.800;2023-08-30T07:38:21;17.50;99.90
22779;DHT22;11556;51.194;3.800;2023-08-30T07:40:47;17.60;99.90
22779;DHT22;11556;51.194;3.800;2023-08-30T07:43:13;17.50;99.90
22779;DHT22;11556;51.194;3.800;2023-08-30T07:45:39;17.50;99.90
22779;DHT22;11556;51.194;3.800;2023-08-30T07:48:04;17.60;99.90
22779;DHT22;11556;51.194;3.800;2023-08-30T07:50:30;18.00;99.90
22779;DHT22;11556;51.194;3.800;2023-08-30T07:52:56;18.20;99.90
22779;DHT22;11556;51.194;3.800;2023-08-30T07:55:21;18.20;99.90
22779;DHT22;11556;51.194;3.800;2023-08-30T07:57:47;17.90;99.90
22779;DHT22;11556;51.194;3.800;2023-08-30T08:00:13;18.00;99.90
22779;DHT22;11556;51.194;3.800;2023-08-30T08:02:40;18.20;99.90
22779;DHT22;11556;51.194;3.800;2023-08-30T08:05:06;18.70;99.90
22779;DHT22;11556;51.194;3.800;2023-08-30T08:07:32;20.30;99.90
22779;DHT22;11556;51.194;3.800;2023-08-30T08:09:58;22.20;99.90
22779;DHT22;11556;51.194;3.800;2023-08-30T08:12:26;23.80;99.90
22779;DHT22;11556;51.194;3.800;2023-08-30T08:14:51;25.10;99.90
22779;DHT22;11556;51.194;3.800;2023-08-30T08:17:17;25.30;99.90
22779;DHT22;11556;51.194;3.800;2023-08-30T08:19:43;26.40;99.90
22779;DHT22;11556;51.194;3.800;2023-08-30T08:22:09;27.40;99.90
22779;DHT22;11556;51.194;3.800;2023-08-30T08:24:35;28.30;99.90
22779;DHT22;11556;51.194;3.800;2023-08-30T08:27:00;28.70;99.90
22779;DHT22;11556;51.194;3.800;2023-08-30T08:29:27;29.50;99.90
22779;DHT22;11556;51.194;3.800;2023-08-30T08:31:54;30.20;97.00
22779;DHT22;11556;51.194;3.800;2023-08-30T08:34:19;30.90;93.60
22779;DHT22;11556;51.194;3.800;2023-08-30T08:36:45;30.20;89.90
22779;DHT22;11556;51.194;3.800;2023-08-30T08:39:11;29.70;89.40
22779;DHT22;11556;51.194;3.800;2023-08-30T08:41:43;28.80;90.60
22779;DHT22;11556;51.194;3.800;2023-08-30T08:44:10;28.00;91.50
22779;DHT22;11556;51.194;3.800;2023-08-30T08:46:41;27.30;93.70
22779;DHT22;11556;51.194;3.800;2023-08-30T08:49:16;27.70;94.90
22779;DHT22;11556;51.194;3.800;2023-08-30T08:51:43;28.10;91.80
22779;DHT22;11556;51.194;3.800;2023-08-30T08:54:10;28.60;91.30
22779;DHT22;11556;51.194;3.800;2023-08-30T08:56:36;29.40;90.30
22779;DHT22;11556;51.194;3.800;2023-08-30T08:59:03;30.40;83.10
22779;DHT22;11556;51.194;3.800;2023-08-30T09:01:28;30.20;77.20
22779;DHT22;11556;51.194;3.800;2023-08-30T09:03:54;29.50;79.40
22779;DHT22;11556;51.194;3.800;2023-08-30T09:06:21;29.30;77.90
22779;DHT22;11556;51.194;3.800;2023-08-30T09:08:47;29.00;77.50
22779;DHT22;11556;51.194;3.800;2023-08-30T09:11:13;28.30;79.20
22779;DHT22;11556;51.194;3.800;2023-08-30T09:13:39;28.60;82.00
22779;DHT22;11556;51.194;3.800;2023-08-30T09:16:22;29.10;77.90
22779;DHT22;11556;51.194;3.800;2023-08-30T09:19:01;29.10;77.50
22779;DHT22;11556;51.194;3.800;2023-08-30T09:21:27;29.50;74.80
22779;DHT22;11556;51.194;3.800;2023-08-30T09:24:05;29.90;72.40
22779;DHT22;11556;51.194;3.800;2023-08-30T09:26:31;30.50;74.90
22779;DHT22;11556;51.194;3.800;2023-08-30T09:29:05;30.40;68.40
22779;DHT22;11556;51.194;3.800;2023-08-30T09:31:37;30.60;65.80
22779;DHT22;11556;51.194;3.800;2023-08-30T09:34:06;29.50;65.70
22779;DHT22;11556;51.194;3.800;2023-08-30T09:36:35;29.10;67.20
22779;DHT22;11556;51.194;3.800;2023-08-30T09:39:08;29.20;66.80
22779;DHT22;11556;51.194;3.800;2023-08-30T09:41:41;29.50;65.60
22779;DHT22;11556;51.194;3.800;2023-08-30T09:46:49;30.00;65.30
22779;DHT22;11556;51.194;3.800;2023-08-30T09:49:19;30.30;63.90
22779;DHT22;11556;51.194;3.800;2023-08-30T09:51:46;30.60;61.80
22779;DHT22;11556;51.194;3.800;2023-08-30T09:54:22;30.00;61.40
22779;DHT22;11556;51.194;3.800;2023-08-30T09:56:49;30.10;61.30
22779;DHT22;11556;51.194;3.800;2023-08-30T09:59:18;30.10;59.50
22779;DHT22;11556;51.194;3.800;2023-08-30T10:01:46;30.10;58.40
22779;DHT22;11556;51.194;3.800;2023-08-30T10:04:13;29.50;60.00
22779;DHT22;11556;51.194;3.800;2023-08-30T10:06:40;29.10;63.20
22779;DHT22;11556;51.194;3.800;2023-08-30T10:09:08;29.40;61.50
22779;DHT22;11556;51.194;3.800;2023-08-30T10:11:35;30.00;58.90
22779;DHT22;11556;51.194;3.800;2023-08-30T10:14:06;30.70;58.00
22779;DHT22;11556;51.194;3.800;2023-08-30T10:16:48;31.10;55.70
22779;DHT22;11556;51.194;3.800;2023-08-30T10:19:24;30.10;55.10
22779;DHT22;11556;51.194;3.800;2023-08-30T10:24:24;29.90;56.10
22779;DHT22;11556;51.194;3.800;2023-08-30T10:26:51;30.10;54.70
22779;DHT22;11556;51.194;3.800;2023-08-30T10:29:19;30.40;53.20
22779;DHT22;11556;51.194;3.800;2023-08-30T10:31:45;30.90;52.20
22779;DHT22;11556;51.194;3.800;2023-08-30T10:34:15;31.50;52.20
22779;DHT22;11556;51.194;3.800;2023-08-30T10:36:42;31.50;51.50
22779;DHT22;11556;51.194;3.800;2023-08-30T10:39:12;31.90;50.60
22779;DHT22;11556;51.194;3.800;2023-08-30T10:41:56;32.40;49.00
22779;DHT22;11556;51.194;3.800;2023-08-30T10:44:22;33.00;47.10
22779;DHT22;11556;51.194;3.800;2023-08-30T10:46:53;32.90;48.80
22779;DHT22;11556;51.194;3.800;2023-08-30T10:49:19;33.20;49.40
22779;DHT22;11556;51.194;3.800;2023-08-30T10:51:45;32.60;46.10
22779;DHT22;11556;51.194;3.800;2023-08-30T10:54:16;31.80;48.90
22779;DHT22;11556;51.194;3.800;2023-08-30T10:57:14;30.50;52.30
22779;DHT22;11556;51.194;3.800;2023-08-30T11:00:09;28.90;54.20
22779;DHT22;11556;51.194;3.800;2023-08-30T11:02:35;28.20;57.10
22779;DHT22;11556;51.194;3.800;2023-08-30T11:05:01;28.80;56.70
22779;DHT22;11556;51.194;3.800;2023-08-30T11:07:28;29.70;55.60
22779;DHT22;11556;51.194;3.800;2023-08-30T11:09:54;30.70;53.00
22779;DHT22;11556;51.194;3.800;2023-08-30T11:12:20;31.50;52.00
22779;DHT22;11556;51.194;3.800;2023-08-30T11:14:48;31.90;50.10
22779;DHT22;11556;51.194;3.800;2023-08-30T11:17:16;32.30;49.60
22779;DHT22;11556;51.194;3.800;2023-08-30T11:19:42;31.90;50.50
22779;DHT22;11556;51.194;3.800;2023-08-30T11:22:08;30.70;51.40
22779;DHT22;11556;51.194;3.800;2023-08-30T11:24:34;29.80;54.20
22779;DHT22;11556;51.194;3.800;2023-08-30T11:27:00;29.60;56.20
22779;DHT22;11556;51.194;3.800;2023-08-30T11:29:29;29.40;55.70
22779;DHT22;11556;51.194;3.800;2023-08-30T11:31:54;28.80;55.00
22779;DHT22;11556;51.194;3.800;2023-08-30T11:34:21;28.40;55.70
22779;DHT22;11556;51.194;3.800;2023-08-30T11:36:50;27.90;58.00
22779;DHT22;11556;51.194;3.800;2023-08-30T11:39:16;28.40;57.70
22779;DHT22;11556;51.194;3.800;2023-08-30T11:41:43;29.20;57.20
22779;DHT22;11556;51.194;3.800;2023-08-30T11:44:09;30.30;55.30
22779;DHT22;11556;51.194;3.800;2023-08-30T11:46:35;31.20;56.00
22779;DHT22;11556;51.194;3.800;2023-08-30T11:49:01;31.90;52.70
22779;DHT22;11556;51.194;3.800;2023-08-30T11:51:28;32.40;52.10
22779;DHT22;11556;51.194;3.800;2023-08-30T11:53:55;32.30;51.60
22779;DHT22;11556;51.194;3.800;2023-08-30T11:56:21;32.50;50.40
22779;DHT22;11556;51.194;3.800;2023-08-30T11:58:48;32.70;51.10
22779;DHT22;11556;51.194;3.800;2023-08-30T12:01:14;32.60;51.30
22779;DHT22;11556;51.194;3.800;2023-08-30T12:03:40;32.70;49.80
22779;DHT22;11556;51.194;3.800;2023-08-30T12:06:10;33.20;48.50
22779;DHT22;11556;51.194;3.800;2023-08-30T12:08:37;32.80;48.60
22779;DHT22;11556;51.194;3.800;2023-08-30T12:11:02;31.40;48.80
22779;DHT22;11556;51.194;3.800;2023-08-30T12:13:34;29.70;52.10
22779;DHT22;11556;51.194;3.800;2023-08-30T12:16:01;28.30;55.10
22779;DHT22;11556;51.194;3.800;2023-08-30T12:18:29;27.30;59.00
22779;DHT22;11556;51.194;3.800;2023-08-30T12:20:58;26.70;62.00
22779;DHT22;11556;51.194;3.800;2023-08-30T12:23:26;26.40;64.20
22779;DHT22;11556;51.194;3.800;2023-08-30T12:28:29;28.50;60.00
22779;DHT22;11556;51.194;3.800;2023-08-30T12:30:55;28.70;58.60
22779;DHT22;11556;51.194;3.800;2023-08-30T12:33:22;28.10;57.80
22779;DHT22;11556;51.194;3.800;2023-08-30T12:35:48;27.30;59.80
22779;DHT22;11556;51.194;3.800;2023-08-30T12:38:13;26.40;62.30
22779;DHT22;11556;51.194;3.800;2023-08-30T12:40:51;25.90;65.00
22779;DHT22;11556;51.194;3.800;2023-08-30T12:43:17;25.80;66.10
22779;DHT22;11556;51.194;3.800;2023-08-30T12:45:44;25.60;65.20
22779;DHT22;11556;51.194;3.800;2023-08-30T12:48:14;25.30;65.90
22779;DHT22;11556;51.194;3.800;2023-08-30T12:50:44;25.00;67.00
22779;DHT22;11556;51.194;3.800;2023-08-30T12:53:11;24.60;69.60
22779;DHT22;11556;51.194;3.800;2023-08-30T12:55:37;24.60;68.70
22779;DHT22;11556;51.194;3.800;2023-08-30T12:58:06;25.40;64.70
22779;DHT22;11556;51.194;3.800;2023-08-30T13:00:33;26.20;62.60
22779;DHT22;11556;51.194;3.800;2023-08-30T13:02:59;27.20;64.10
22779;DHT22;11556;51.194;3.800;2023-08-30T13:05:25;28.10;57.50
22779;DHT22;11556;51.194;3.800;2023-08-30T13:07:50;28.80;55.90
22779;DHT22;11556;51.194;3.800;2023-08-30T13:10:16;29.70;56.90
22779;DHT22;11556;51.194;3.800;2023-08-30T13:12:43;30.60;53.70
22779;DHT22;11556;51.194;3.800;2023-08-30T13:15:09;31.00;52.90
22779;DHT22;11556;51.194;3.800;2023-08-30T13:17:35;31.40;51.90
22779;DHT22;11556;51.194;3.800;2023-08-30T13:20:01;32.00;51.00
22779;DHT22;11556;51.194;3.800;2023-08-30T13:22:29;31.60;48.90
22779;DHT22;11556;51.194;3.800;2023-08-30T13:24:55;30.30;49.30
22779;DHT22;11556;51.194;3.800;2023-08-30T13:27:20;29.60;53.50
22779;DHT22;11556;51.194;3.800;2023-08-30T13:29:46;29.10;52.60
22779;DHT22;11556;51.194;3.800;2023-08-30T13:32:12;28.30;54.30
22779;DHT22;11556;51.194;3.800;2023-08-30T13:34:38;27.50;56.70
22779;DHT22;11556;51.194;3.800;2023-08-30T13:37:04;27.00;58.80
22779;DHT22;11556;51.194;3.800;2023-08-30T13:39:30;27.10;58.50
22779;DHT22;11556;51.194;3.800;2023-08-30T13:41:56;27.50;59.70
22779;DHT22;11556;51.194;3.800;2023-08-30T13:44:21;27.50;56.60
22779;DHT22;11556;51.194;3.800;2023-08-30T13:46:47;27.10;58.90
22779;DHT22;11556;51.194;3.800;2023-08-30T13:49:15;26.80;59.20
22779;DHT22;11556;51.194;3.800;2023-08-30T13:51:41;26.30;60.10
22779;DHT22;11556;51.194;3.800;2023-08-30T13:54:07;26.00;62.70
22779;DHT22;11556;51.194;3.800;2023-08-30T13:56:32;25.80;62.20
22779;DHT22;11556;51.194;3.800;2023-08-30T13:58:58;25.70;63.30
22779;DHT22;11556;51.194;3.800;2023-08-30T14:01:24;25.70;64.40
22779;DHT22;11556;51.194;3.800;2023-08-30T14:03:49;25.70;64.00
22779;DHT22;11556;51.194;3.800;2023-08-30T14:06:15;25.70;64.00
22779;DHT22;11556;51.194;3.800;2023-08-30T14:08:41;25.20;62.80
22779;DHT22;11556;51.194;3.800;2023-08-30T14:11:08;24.90;64.20
22779;DHT22;11556;51.194;3.800;2023-08-30T14:13:33;24.50;65.30
22779;DHT22;11556;51.194;3.800;2023-08-30T14:16:01;24.20;67.40
22779;DHT22;11556;51.194;3.800;2023-08-30T14:18:28;23.90;69.40
22779;DHT22;11556;51.194;3.800;2023-08-30T14:20:58;23.70;72.30
22779;DHT22;11556;51.194;3.800;2023-08-30T14:23:24;23.50;78.40
22779;DHT22;11556;51.194;3.800;2023-08-30T14:26:02;23.40;79.90
22779;DHT22;11556;51.194;3.800;2023-08-30T14:28:33;23.90;79.90
22779;DHT22;11556;51.194;3.800;2023-08-30T14:30:59;25.00;75.50
22779;DHT22;11556;51.194;3.800;2023-08-30T14:33:25;25.80;73.00
22779;DHT22;11556;51.194;3.800;2023-08-30T14:35:50;26.40;67.80
22779;DHT22;11556;51.194;3.800;2023-08-30T14:38:16;26.30;66.50
22779;DHT22;11556;51.194;3.800;2023-08-30T14:40:42;26.10;66.90
22779;DHT22;11556;51.194;3.800;2023-08-30T14:43:08;25.70;63.90
22779;DHT22;11556;51.194;3.800;2023-08-30T14:45:34;25.40;64.60
22779;DHT22;11556;51.194;3.800;2023-08-30T14:48:00;25.10;67.10
22779;DHT22;11556;51.194;3.800;2023-08-30T14:50:25;25.10;67.50
22779;DHT22;11556;51.194;3.800;2023-08-30T14:52:51;25.50;70.00
22779;DHT22;11556;51.194;3.800;2023-08-30T14:55:20;26.00;65.40
22779;DHT22;11556;51.194;3.800;2023-08-30T14:57:46;26.70;64.50
22779;DHT22;11556;51.194;3.800;2023-08-30T15:00:12;27.00;62.30
22779;DHT22;11556;51.194;3.800;2023-08-30T15:02:37;26.70;61.30
22779;DHT22;11556;51.194;3.800;2023-08-30T15:05:03;26.30;61.90
22779;DHT22;11556;51.194;3.800;2023-08-30T15:07:29;25.60;63.50
22779;DHT22;11556;51.194;3.800;2023-08-30T15:09:54;25.10;65.60
22779;DHT22;11556;51.194;3.800;2023-08-30T15:12:20;24.60;67.30
22779;DHT22;11556;51.194;3.800;2023-08-30T15:14:46;24.20;69.30
22779;DHT22;11556;51.194;3.800;2023-08-30T15:17:13;23.90;70.00
22779;DHT22;11556;51.194;3.800;2023-08-30T15:19:39;23.80;72.60
22779;DHT22;11556;51.194;3.800;2023-08-30T15:22:05;23.70;74.80
22779;DHT22;11556;51.194;3.800;2023-08-30T15:24:30;23.80;72.90
22779;DHT22;11556;51.194;3.800;2023-08-30T15:26:56;24.40;71.60
22779;DHT22;11556;51.194;3.800;2023-08-30T15:29:22;24.70;69.50
22779;DHT22;11556;51.194;3.800;2023-08-30T15:31:47;24.60;70.40
22779;DHT22;11556;51.194;3.800;2023-08-30T15:34:19;24.20;72.50
22779;DHT22;11556;51.194;3.800;2023-08-30T15:36:45;23.80;74.10
22779;DHT22;11556;51.194;3.800;2023-08-30T15:39:13;23.50;74.30
22779;DHT22;11556;51.194;3.800;2023-08-30T15:41:40;23.40;75.80
22779;DHT22;11556;51.194;3.800;2023-08-30T15:44:06;23.40;75.20